sensor_id;sensor_type;location;lat;lon;timestamp;pressure;altitude;pressure_sealevel;temperature;humidity
54236;BME280;40151;43.606;1.472;2023-01-29T00:01:11;100261.81;;;12.52;49.33
54236;BME280;40151;43.606;1.472;2023-01-29T00:03:37;100257.50;;;12.49;49.58
54236;BME280;40151;43.606;1.472;2023-01-29T00:06:06;100253.16;;;12.47;49.62
54236;BME280;40151;43.606;1.472;2023-01-29T00:08:34;100261.81;;;12.52;49.86
54236;BME280;40151;43.606;1.472;2023-01-29T00:11:09;100254.03;;;12.46;49.73
54236;BME280;40151;43.606;1.472;2023-01-29T00:13:34;100261.81;;;12.51;49.62
54236;BME280;40151;43.606;1.472;2023-01-29T00:16:00;100257.44;;;12.53;49.51
54236;BME280;40151;43.606;1.472;2023-01-29T00:18:26;100249.63;;;12.51;49.47
54236;BME280;40151;43.606;1.472;2023-01-29T00:20:52;100247.88;;;12.50;49.63
54236;BME280;40151;43.606;1.472;2023-01-29T00:23:18;100249.63;;;12.51;49.46
54236;BME280;40151;43.606;1.472;2023-01-29T00:25:44;100254.84;;;12.51;49.47
54236;BME280;40151;43.606;1.472;2023-01-29T00:28:10;100247.91;;;12.48;49.64
54236;BME280;40151;43.606;1.472;2023-01-29T00:30:37;100245.22;;;12.52;49.49
54236;BME280;40151;43.606;1.472;2023-01-29T00:33:03;100244.38;;;12.51;49.41
54236;BME280;40151;43.606;1.472;2023-01-29T00:35:29;100243.50;;;12.51;49.50
54236;BME280;40151;43.606;1.472;2023-01-29T00:37:55;100242.66;;;12.48;49.48
54236;BME280;40151;43.606;1.472;2023-01-29T00:40:21;100233.94;;;12.48;49.54
54236;BME280;40151;43.606;1.472;2023-01-29T00:42:47;100241.78;;;12.49;49.58
54236;BME280;40151;43.606;1.472;2023-01-29T00:45:31;100240.03;;;12.50;49.55
54236;BME280;40151;43.606;1.472;2023-01-29T00:47:57;100237.41;;;12.50;49.62
54236;BME280;40151;43.606;1.472;2023-01-29T00:50:22;100239.16;;;12.48;49.55
54236;BME280;40151;43.606;1.472;2023-01-29T00:52:48;100236.56;;;12.48;49.51
54236;BME280;40151;43.606;1.472;2023-01-29T00:55:16;100237.41;;;12.50;49.40
54236;BME280;40151;43.606;1.472;2023-01-29T00:57:41;100228.69;;;12.51;49.38
54236;BME280;40151;43.606;1.472;2023-01-29T01:00:10;100232.22;;;12.47;49.49
54236;BME280;40151;43.606;1.472;2023-01-29T01:02:37;100227.88;;;12.46;49.46
54236;BME280;40151;43.606;1.472;2023-01-29T01:05:21;100230.44;;;12.49;49.69
54236;BME280;40151;43.606;1.472;2023-01-29T01:07:49;100231.31;;;12.48;49.63
54236;BME280;40151;43.606;1.472;2023-01-29T01:10:20;100239.16;;;12.48;49.58
54236;BME280;40151;43.606;1.472;2023-01-29T01:12:56;100225.25;;;12.46;49.59
54236;BME280;40151;43.606;1.472;2023-01-29T01:15:23;100232.19;;;12.50;49.40
54236;BME280;40151;43.606;1.472;2023-01-29T01:17:57;100227.84;;;12.47;49.68
54236;BME280;40151;43.606;1.472;2023-01-29T01:20:24;100230.47;;;12.46;49.60
54236;BME280;40151;43.606;1.472;2023-01-29T01:22:52;100225.28;;;12.43;49.73
54236;BME280;40151;43.606;1.472;2023-01-29T01:25:17;100220.09;;;12.40;49.85
54236;BME280;40151;43.606;1.472;2023-01-29T01:27:43;100230.50;;;12.43;49.56
54236;BME280;40151;43.606;1.472;2023-01-29T01:30:12;100233.13;;;12.43;49.71
54236;BME280;40151;43.606;1.472;2023-01-29T01:32:39;100226.09;;;12.46;49.56
54236;BME280;40151;43.606;1.472;2023-01-29T01:35:05;100226.09;;;12.46;49.51
54236;BME280;40151;43.606;1.472;2023-01-29T01:37:31;100228.75;;;12.45;49.47
54236;BME280;40151;43.606;1.472;2023-01-29T01:39:57;100225.25;;;12.46;49.44
54236;BME280;40151;43.606;1.472;2023-01-29T01:42:29;100234.84;;;12.45;49.25
54236;BME280;40151;43.606;1.472;2023-01-29T01:45:04;100227.00;;;12.44;49.77
54236;BME280;40151;43.606;1.472;2023-01-29T01:47:41;100240.94;;;12.46;49.61
54236;BME280;40151;43.606;1.472;2023-01-29T01:50:35;100240.06;;;12.47;49.52
54236;BME280;40151;43.606;1.472;2023-01-29T01:53:08;100235.72;;;12.46;49.50
54236;BME280;40151;43.606;1.472;2023-01-29T01:55:37;100236.59;;;12.45;49.57
54236;BME280;40151;43.606;1.472;2023-01-29T01:58:34;100223.53;;;12.43;49.63
54236;BME280;40151;43.606;1.472;2023-01-29T02:01:03;100236.59;;;12.45;49.36
54236;BME280;40151;43.606;1.472;2023-01-29T02:03:33;100239.25;;;12.43;49.47
54236;BME280;40151;43.606;1.472;2023-01-29T02:06:18;100239.25;;;12.42;49.45
54236;BME280;40151;43.606;1.472;2023-01-29T02:09:14;100244.47;;;12.45;49.65
54236;BME280;40151;43.606;1.472;2023-01-29T02:12:09;100234.00;;;12.45;49.59
54236;BME280;40151;43.606;1.472;2023-01-29T02:14:36;100236.59;;;12.45;49.55
54236;BME280;40151;43.606;1.472;2023-01-29T02:17:09;100232.22;;;12.44;49.72
54236;BME280;40151;43.606;1.472;2023-01-29T02:28:31;100237.53;;;12.41;49.73
54236;BME280;40151;43.606;1.472;2023-01-29T02:38:36;100244.50;;;12.42;49.62
54236;BME280;40151;43.606;1.472;2023-01-29T02:43:47;100243.63;;;12.41;49.74
54236;BME280;40151;43.606;1.472;2023-01-29T02:46:39;100242.75;;;12.41;49.45
54236;BME280;40151;43.606;1.472;2023-01-29T02:52:17;100248.88;;;12.40;49.75
54236;BME280;40151;43.606;1.472;2023-01-29T02:54:50;100251.50;;;12.40;49.57
54236;BME280;40151;43.606;1.472;2023-01-29T02:57:26;100253.22;;;12.41;49.61
54236;BME280;40151;43.606;1.472;2023-01-29T03:00:03;100251.50;;;12.40;49.61
54236;BME280;40151;43.606;1.472;2023-01-29T03:02:40;100251.50;;;12.41;49.57
54236;BME280;40151;43.606;1.472;2023-01-29T03:05:12;100257.59;;;12.40;49.64
54236;BME280;40151;43.606;1.472;2023-01-29T03:07:47;100252.47;;;12.32;49.67
54236;BME280;40151;43.606;1.472;2023-01-29T03:10:35;100258.47;;;12.41;49.46
54236;BME280;40151;43.606;1.472;2023-01-29T03:13:29;100251.50;;;12.40;49.58
54236;BME280;40151;43.606;1.472;2023-01-29T03:15:59;100268.94;;;12.41;49.49
54236;BME280;40151;43.606;1.472;2023-01-29T03:18:31;100261.09;;;12.38;49.58
54236;BME280;40151;43.606;1.472;2023-01-29T03:21:04;100265.44;;;12.42;49.52
54236;BME280;40151;43.606;1.472;2023-01-29T03:23:54;100261.97;;;12.40;49.42
54236;BME280;40151;43.606;1.472;2023-01-29T03:26:42;100260.25;;;12.39;49.53
54236;BME280;40151;43.606;1.472;2023-01-29T03:29:29;100272.47;;;12.37;49.63
54236;BME280;40151;43.606;1.472;2023-01-29T03:32:16;100275.91;;;12.40;49.35
54236;BME280;40151;43.606;1.472;2023-01-29T03:34:49;100270.72;;;12.39;49.50
54236;BME280;40151;43.606;1.472;2023-01-29T03:37:25;100271.56;;;12.38;49.62
54236;BME280;40151;43.606;1.472;2023-01-29T03:39:53;100269.84;;;12.38;49.31
54236;BME280;40151;43.606;1.472;2023-01-29T03:42:33;100283.81;;;12.39;49.55
54236;BME280;40151;43.606;1.472;2023-01-29T03:50:50;100274.19;;;12.38;49.51
54236;BME280;40151;43.606;1.472;2023-01-29T03:59:01;100284.66;;;12.38;49.43
54236;BME280;40151;43.606;1.472;2023-01-29T04:01:52;100279.47;;;12.34;49.70
54236;BME280;40151;43.606;1.472;2023-01-29T04:04:27;100281.22;;;12.35;49.46
54236;BME280;40151;43.606;1.472;2023-01-29T04:06:59;100282.97;;;12.35;49.65
54236;BME280;40151;43.606;1.472;2023-01-29T04:10:06;100284.72;;;12.34;49.61
54236;BME280;40151;43.606;1.472;2023-01-29T04:12:41;100287.31;;;12.36;49.83
54236;BME280;40151;43.606;1.472;2023-01-29T04:15:10;100290.84;;;12.33;49.66
54236;BME280;40151;43.606;1.472;2023-01-29T04:17:42;100291.69;;;12.35;49.72
54236;BME280;40151;43.606;1.472;2023-01-29T04:20:08;100301.25;;;12.38;49.46
54236;BME280;40151;43.606;1.472;2023-01-29T04:22:37;100306.53;;;12.35;49.42
54236;BME280;40151;43.606;1.472;2023-01-29T04:25:07;100301.25;;;12.37;49.48
54236;BME280;40151;43.606;1.472;2023-01-29T04:28:24;100297.78;;;12.36;49.56
54236;BME280;40151;43.606;1.472;2023-01-29T04:30:57;100290.84;;;12.35;49.53
54236;BME280;40151;43.606;1.472;2023-01-29T04:46:32;100306.53;;;12.35;49.46
54236;BME280;40151;43.606;1.472;2023-01-29T04:51:55;100309.16;;;12.33;49.50
54236;BME280;40151;43.606;1.472;2023-01-29T04:59:24;100308.28;;;12.33;49.57
54236;BME280;40151;43.606;1.472;2023-01-29T05:01:52;100308.28;;;12.34;49.47
54236;BME280;40151;43.606;1.472;2023-01-29T05:04:19;100303.94;;;12.33;49.57
54236;BME280;40151;43.606;1.472;2023-01-29T05:06:46;100303.06;;;12.31;49.52
54236;BME280;40151;43.606;1.472;2023-01-29T05:09:14;100307.44;;;12.32;49.36
54236;BME280;40151;43.606;1.472;2023-01-29T05:11:41;100316.16;;;12.31;49.68
54236;BME280;40151;43.606;1.472;2023-01-29T05:14:09;100317.91;;;12.32;49.60
54236;BME280;40151;43.606;1.472;2023-01-29T05:16:44;100309.16;;;12.33;49.58
54236;BME280;40151;43.606;1.472;2023-01-29T05:19:13;100315.25;;;12.34;49.73
54236;BME280;40151;43.606;1.472;2023-01-29T05:21:42;100315.25;;;12.34;49.66
54236;BME280;40151;43.606;1.472;2023-01-29T05:24:14;100312.66;;;12.32;49.46
54236;BME280;40151;43.606;1.472;2023-01-29T05:26:42;100324.88;;;12.33;49.67
54236;BME280;40151;43.606;1.472;2023-01-29T05:29:27;100324.88;;;12.30;49.86
54236;BME280;40151;43.606;1.472;2023-01-29T05:31:52;100331.84;;;12.31;49.47
54236;BME280;40151;43.606;1.472;2023-01-29T05:34:18;100333.59;;;12.32;49.59
54236;BME280;40151;43.606;1.472;2023-01-29T05:36:43;100339.75;;;12.30;49.56
54236;BME280;40151;43.606;1.472;2023-01-29T05:39:09;100331.84;;;12.31;49.48
54236;BME280;40151;43.606;1.472;2023-01-29T05:41:34;100331.84;;;12.31;49.48
54236;BME280;40151;43.606;1.472;2023-01-29T05:43:59;100347.56;;;12.31;49.48
54236;BME280;40151;43.606;1.472;2023-01-29T05:46:25;100339.75;;;12.28;49.51
54236;BME280;40151;43.606;1.472;2023-01-29T05:48:53;100356.28;;;12.30;49.69
54236;BME280;40151;43.606;1.472;2023-01-29T05:51:19;100352.78;;;12.31;49.56
54236;BME280;40151;43.606;1.472;2023-01-29T05:53:44;100364.16;;;12.30;49.38
54236;BME280;40151;43.606;1.472;2023-01-29T05:56:10;100356.34;;;12.27;49.64
54236;BME280;40151;43.606;1.472;2023-01-29T05:58:35;100363.25;;;12.31;49.65
54236;BME280;40151;43.606;1.472;2023-01-29T06:01:17;100352.78;;;12.31;49.62
54236;BME280;40151;43.606;1.472;2023-01-29T06:03:43;100353.69;;;12.30;49.42
54236;BME280;40151;43.606;1.472;2023-01-29T06:06:09;100358.06;;;12.28;49.59
54236;BME280;40151;43.606;1.472;2023-01-29T06:08:35;100360.63;;;12.31;49.61
54236;BME280;40151;43.606;1.472;2023-01-29T06:11:01;100348.44;;;12.29;49.62
54236;BME280;40151;43.606;1.472;2023-01-29T06:13:26;100363.28;;;12.30;49.63
54236;BME280;40151;43.606;1.472;2023-01-29T06:15:52;100358.03;;;12.31;49.68
54236;BME280;40151;43.606;1.472;2023-01-29T06:18:18;100358.03;;;12.31;49.63
54236;BME280;40151;43.606;1.472;2023-01-29T06:20:43;100356.28;;;12.30;49.49
54236;BME280;40151;43.606;1.472;2023-01-29T06:23:09;100359.78;;;12.29;49.64
54236;BME280;40151;43.606;1.472;2023-01-29T06:25:34;100358.91;;;12.30;49.60
54236;BME280;40151;43.606;1.472;2023-01-29T06:28:00;100362.41;;;12.31;49.57
54236;BME280;40151;43.606;1.472;2023-01-29T06:30:25;100358.06;;;12.28;49.71
54236;BME280;40151;43.606;1.472;2023-01-29T06:32:56;100363.31;;;12.28;49.65
54236;BME280;40151;43.606;1.472;2023-01-29T06:35:26;100359.78;;;12.29;49.59
54236;BME280;40151;43.606;1.472;2023-01-29T06:37:52;100359.84;;;12.26;49.64
54236;BME280;40151;43.606;1.472;2023-01-29T06:40:18;100363.28;;;12.30;49.60
54236;BME280;40151;43.606;1.472;2023-01-29T06:42:43;100368.53;;;12.28;49.69
54236;BME280;40151;43.606;1.472;2023-01-29T06:45:09;100359.81;;;12.28;49.56
54236;BME280;40151;43.606;1.472;2023-01-29T06:47:35;100366.81;;;12.27;49.56
54236;BME280;40151;43.606;1.472;2023-01-29T06:50:00;100372.03;;;12.27;49.64
54236;BME280;40151;43.606;1.472;2023-01-29T06:52:26;100380.72;;;12.29;49.62
54236;BME280;40151;43.606;1.472;2023-01-29T06:54:53;100371.16;;;12.25;49.67
54236;BME280;40151;43.606;1.472;2023-01-29T06:57:19;100372.88;;;12.28;49.52
54236;BME280;40151;43.606;1.472;2023-01-29T06:59:45;100372.88;;;12.28;49.62
54236;BME280;40151;43.606;1.472;2023-01-29T07:02:12;100376.38;;;12.30;49.61
54236;BME280;40151;43.606;1.472;2023-01-29T07:04:38;100380.78;;;12.26;49.56
54236;BME280;40151;43.606;1.472;2023-01-29T07:07:03;100380.78;;;12.26;49.48
54236;BME280;40151;43.606;1.472;2023-01-29T07:09:29;100375.53;;;12.26;49.56
54236;BME280;40151;43.606;1.472;2023-01-29T07:11:55;100389.50;;;12.25;49.52
54236;BME280;40151;43.606;1.472;2023-01-29T07:14:20;100388.59;;;12.28;49.61
54236;BME280;40151;43.606;1.472;2023-01-29T07:16:46;100394.72;;;12.25;49.64
54236;BME280;40151;43.606;1.472;2023-01-29T07:19:11;100405.19;;;12.28;49.52
54236;BME280;40151;43.606;1.472;2023-01-29T07:21:37;100413.03;;;12.27;49.65
54236;BME280;40151;43.606;1.472;2023-01-29T07:24:02;100413.94;;;12.24;49.67
54236;BME280;40151;43.606;1.472;2023-01-29T07:26:28;100414.81;;;12.26;49.67
54236;BME280;40151;43.606;1.472;2023-01-29T07:28:53;100415.66;;;12.27;49.33
54236;BME280;40151;43.606;1.472;2023-01-29T07:31:18;100413.06;;;12.24;49.63
54236;BME280;40151;43.606;1.472;2023-01-29T07:33:44;100426.13;;;12.25;49.58
54236;BME280;40151;43.606;1.472;2023-01-29T07:36:11;100419.16;;;12.24;49.51
54236;BME280;40151;43.606;1.472;2023-01-29T07:38:37;100428.75;;;12.25;49.65
54236;BME280;40151;43.606;1.472;2023-01-29T07:41:02;100440.09;;;12.24;49.81
54236;BME280;40151;43.606;1.472;2023-01-29T07:43:28;100445.34;;;12.24;49.55
54236;BME280;40151;43.606;1.472;2023-01-29T07:45:54;100433.13;;;12.23;49.54
54236;BME280;40151;43.606;1.472;2023-01-29T07:48:19;100447.06;;;12.25;49.68
54236;BME280;40151;43.606;1.472;2023-01-29T07:50:53;100442.72;;;12.22;49.63
54236;BME280;40151;43.606;1.472;2023-01-29T07:53:19;100440.97;;;12.25;49.57
54236;BME280;40151;43.606;1.472;2023-01-29T07:55:44;100448.81;;;12.26;49.50
54236;BME280;40151;43.606;1.472;2023-01-29T07:58:10;100455.81;;;12.24;49.62
54236;BME280;40151;43.606;1.472;2023-01-29T08:00:36;100459.31;;;12.25;49.75
54236;BME280;40151;43.606;1.472;2023-01-29T08:03:06;100454.06;;;12.23;49.53
54236;BME280;40151;43.606;1.472;2023-01-29T08:05:33;100467.16;;;12.26;49.61
54236;BME280;40151;43.606;1.472;2023-01-29T08:07:59;100457.53;;;12.25;49.57
54236;BME280;40151;43.606;1.472;2023-01-29T08:10:25;100466.28;;;12.24;49.53
54236;BME280;40151;43.606;1.472;2023-01-29T08:12:55;100475.00;;;12.26;49.63
54236;BME280;40151;43.606;1.472;2023-01-29T08:15:23;100477.63;;;12.23;49.46
54236;BME280;40151;43.606;1.472;2023-01-29T08:17:49;100477.63;;;12.25;49.65
54236;BME280;40151;43.606;1.472;2023-01-29T08:20:15;100461.94;;;12.21;49.68
54236;BME280;40151;43.606;1.472;2023-01-29T08:22:40;100468.03;;;12.22;49.54
54236;BME280;40151;43.606;1.472;2023-01-29T08:25:06;100469.78;;;12.23;49.60
54236;BME280;40151;43.606;1.472;2023-01-29T08:27:31;100465.44;;;12.22;49.82
54236;BME280;40151;43.606;1.472;2023-01-29T08:30:00;100475.88;;;12.24;49.63
54236;BME280;40151;43.606;1.472;2023-01-29T08:32:26;100478.47;;;12.25;49.66
54236;BME280;40151;43.606;1.472;2023-01-29T08:34:51;100474.13;;;12.24;49.66
54236;BME280;40151;43.606;1.472;2023-01-29T08:37:16;100468.88;;;12.22;49.61
54236;BME280;40151;43.606;1.472;2023-01-29T08:39:42;100471.50;;;12.24;49.69
54236;BME280;40151;43.606;1.472;2023-01-29T08:42:07;100473.28;;;12.22;49.63
54236;BME280;40151;43.606;1.472;2023-01-29T08:44:33;100475.91;;;12.22;49.59
54236;BME280;40151;43.606;1.472;2023-01-29T08:46:58;100489.81;;;12.26;49.51
54236;BME280;40151;43.606;1.472;2023-01-29T08:49:24;100487.25;;;12.21;49.76
54236;BME280;40151;43.606;1.472;2023-01-29T08:51:49;100492.47;;;12.21;49.74
54236;BME280;40151;43.606;1.472;2023-01-29T08:54:16;100494.22;;;12.22;49.75
54236;BME280;40151;43.606;1.472;2023-01-29T08:56:41;100488.97;;;12.20;49.65
54236;BME280;40151;43.606;1.472;2023-01-29T08:59:08;100485.47;;;12.20;49.76
54236;BME280;40151;43.606;1.472;2023-01-29T09:01:34;100488.97;;;12.22;49.56
54236;BME280;40151;43.606;1.472;2023-01-29T09:04:00;100493.31;;;12.23;49.67
54236;BME280;40151;43.606;1.472;2023-01-29T09:06:25;100493.31;;;12.25;49.74
54236;BME280;40151;43.606;1.472;2023-01-29T09:08:51;100483.75;;;12.22;49.64
54236;BME280;40151;43.606;1.472;2023-01-29T09:11:16;100490.72;;;12.23;49.48
54236;BME280;40151;43.606;1.472;2023-01-29T09:13:41;100498.56;;;12.25;49.46
54236;BME280;40151;43.606;1.472;2023-01-29T09:16:08;100500.28;;;12.24;49.51
54236;BME280;40151;43.606;1.472;2023-01-29T09:18:33;100501.19;;;12.23;49.69
54236;BME280;40151;43.606;1.472;2023-01-29T09:20:59;100502.03;;;12.25;49.69
54236;BME280;40151;43.606;1.472;2023-01-29T09:23:27;100499.41;;;12.25;49.44
54236;BME280;40151;43.606;1.472;2023-01-29T09:25:53;100489.81;;;12.26;49.61
54236;BME280;40151;43.606;1.472;2023-01-29T09:28:18;100492.44;;;12.24;49.66
54236;BME280;40151;43.606;1.472;2023-01-29T09:30:44;100494.22;;;12.22;49.62
54236;BME280;40151;43.606;1.472;2023-01-29T09:33:10;100495.94;;;12.26;49.66
54236;BME280;40151;43.606;1.472;2023-01-29T09:35:35;100495.94;;;12.23;49.61
54236;BME280;40151;43.606;1.472;2023-01-29T09:38:01;100495.94;;;12.25;49.46
54236;BME280;40151;43.606;1.472;2023-01-29T09:40:34;100494.16;;;12.25;49.63
54236;BME280;40151;43.606;1.472;2023-01-29T09:43:06;100509.03;;;12.26;49.58
54236;BME280;40151;43.606;1.472;2023-01-29T09:45:35;100504.63;;;12.25;49.71
54236;BME280;40151;43.606;1.472;2023-01-29T09:48:02;100509.03;;;12.26;49.60
54236;BME280;40151;43.606;1.472;2023-01-29T09:53:03;100517.72;;;12.28;49.50
54236;BME280;40151;43.606;1.472;2023-01-29T09:56:11;100514.25;;;12.26;49.58
54236;BME280;40151;43.606;1.472;2023-01-29T09:58:41;100508.16;;;12.24;49.54
54236;BME280;40151;43.606;1.472;2023-01-29T10:01:26;100512.47;;;12.28;49.37
54236;BME280;40151;43.606;1.472;2023-01-29T10:10:10;100516.84;;;12.29;49.46
54236;BME280;40151;43.606;1.472;2023-01-29T10:13:02;100521.19;;;12.29;49.48
54236;BME280;40151;43.606;1.472;2023-01-29T10:15:52;100522.06;;;12.29;49.57
54236;BME280;40151;43.606;1.472;2023-01-29T10:18:47;100530.81;;;12.28;49.52
54236;BME280;40151;43.606;1.472;2023-01-29T10:26:39;100519.47;;;12.28;49.49
54236;BME280;40151;43.606;1.472;2023-01-29T10:29:06;100528.19;;;12.30;49.38
54236;BME280;40151;43.606;1.472;2023-01-29T10:31:36;100529.03;;;12.30;49.37
54236;BME280;40151;43.606;1.472;2023-01-29T10:36:36;100528.16;;;12.31;49.61
54236;BME280;40151;43.606;1.472;2023-01-29T10:39:02;100529.03;;;12.30;49.52
54236;BME280;40151;43.606;1.472;2023-01-29T10:41:47;100530.75;;;12.31;49.46
54236;BME280;40151;43.606;1.472;2023-01-29T10:49:40;100513.31;;;12.33;49.43
54236;BME280;40151;43.606;1.472;2023-01-29T11:00:49;100518.56;;;12.33;49.47
54236;BME280;40151;43.606;1.472;2023-01-29T11:03:29;100520.28;;;12.34;49.52
54236;BME280;40151;43.606;1.472;2023-01-29T11:06:23;100518.50;;;12.37;49.49
54236;BME280;40151;43.606;1.472;2023-01-29T11:09:18;100516.78;;;12.35;49.51
54236;BME280;40151;43.606;1.472;2023-01-29T11:11:48;100516.78;;;12.34;49.48
54236;BME280;40151;43.606;1.472;2023-01-29T11:17:22;100505.44;;;12.37;49.61
54236;BME280;40151;43.606;1.472;2023-01-29T11:19:49;100492.34;;;12.37;49.56
54236;BME280;40151;43.606;1.472;2023-01-29T11:22:18;100496.72;;;12.36;49.53
54236;BME280;40151;43.606;1.472;2023-01-29T11:24:45;100501.06;;;12.39;49.49
54236;BME280;40151;43.606;1.472;2023-01-29T11:27:21;100488.84;;;12.38;49.52
54236;BME280;40151;43.606;1.472;2023-01-29T11:29:48;100478.41;;;12.34;49.42
54236;BME280;40151;43.606;1.472;2023-01-29T11:37:21;100480.13;;;12.39;49.48
54236;BME280;40151;43.606;1.472;2023-01-29T11:39:46;100469.66;;;12.39;49.56
54236;BME280;40151;43.606;1.472;2023-01-29T11:42:19;100466.16;;;12.38;49.47
54236;BME280;40151;43.606;1.472;2023-01-29T11:44:45;100467.00;;;12.42;49.75
54236;BME280;40151;43.606;1.472;2023-01-29T11:47:17;100464.38;;;12.40;49.57
54236;BME280;40151;43.606;1.472;2023-01-29T11:52:13;100461.75;;;12.42;49.54
54236;BME280;40151;43.606;1.472;2023-01-29T11:54:46;100455.69;;;12.40;49.62
54236;BME280;40151;43.606;1.472;2023-01-29T11:57:27;100460.03;;;12.42;49.41
54236;BME280;40151;43.606;1.472;2023-01-29T11:59:56;100449.56;;;12.39;49.36
54236;BME280;40151;43.606;1.472;2023-01-29T12:05:18;100453.91;;;12.42;49.55
54236;BME280;40151;43.606;1.472;2023-01-29T12:07:45;100453.91;;;12.42;49.45
54236;BME280;40151;43.606;1.472;2023-01-29T12:15:46;100445.16;;;12.43;49.47
54236;BME280;40151;43.606;1.472;2023-01-29T12:21:37;100446.88;;;12.44;49.45
54236;BME280;40151;43.606;1.472;2023-01-29T12:24:32;100441.66;;;12.44;49.47
54236;BME280;40151;43.606;1.472;2023-01-29T12:33:00;100439.91;;;12.46;49.38
54236;BME280;40151;43.606;1.472;2023-01-29T12:35:42;100441.66;;;12.44;49.54
54236;BME280;40151;43.606;1.472;2023-01-29T12:38:21;100438.19;;;12.45;49.52
54236;BME280;40151;43.606;1.472;2023-01-29T12:40:50;100431.16;;;12.47;49.37
54236;BME280;40151;43.606;1.472;2023-01-29T12:43:43;100431.16;;;12.47;49.41
54236;BME280;40151;43.606;1.472;2023-01-29T12:46:29;100415.47;;;12.47;49.56
54236;BME280;40151;43.606;1.472;2023-01-29T12:48:58;100415.47;;;12.47;49.57
54236;BME280;40151;43.606;1.472;2023-01-29T12:51:36;100422.44;;;12.48;49.43
54236;BME280;40151;43.606;1.472;2023-01-29T12:54:08;100408.44;;;12.49;49.39
54236;BME280;40151;43.606;1.472;2023-01-29T12:56:46;100405.88;;;12.47;49.60
54236;BME280;40151;43.606;1.472;2023-01-29T12:59:38;100413.69;;;12.49;49.24
54236;BME280;40151;43.606;1.472;2023-01-29T13:05:38;100418.91;;;12.49;49.64
54236;BME280;40151;43.606;1.472;2023-01-29T13:08:25;100417.19;;;12.51;49.41
54236;BME280;40151;43.606;1.472;2023-01-29T13:10:53;100414.56;;;12.51;49.40
54236;BME280;40151;43.606;1.472;2023-01-29T13:13:36;100422.41;;;12.51;49.43
54236;BME280;40151;43.606;1.472;2023-01-29T13:16:09;100429.38;;;12.52;49.47
54236;BME280;40151;43.606;1.472;2023-01-29T13:21:03;100424.97;;;12.54;49.39
54236;BME280;40151;43.606;1.472;2023-01-29T13:23:38;100425.00;;;12.53;49.56
54236;BME280;40151;43.606;1.472;2023-01-29T13:26:04;100424.13;;;12.52;49.43
54236;BME280;40151;43.606;1.472;2023-01-29T13:28:30;100418.91;;;12.52;49.48
54236;BME280;40151;43.606;1.472;2023-01-29T13:31:21;100417.13;;;12.54;49.33
54236;BME280;40151;43.606;1.472;2023-01-29T13:33:54;100419.75;;;12.53;49.43
54236;BME280;40151;43.606;1.472;2023-01-29T13:36:27;100427.59;;;12.54;49.46
54236;BME280;40151;43.606;1.472;2023-01-29T13:39:01;100413.66;;;12.52;49.55
54236;BME280;40151;43.606;1.472;2023-01-29T13:41:39;100410.16;;;12.53;49.44
54236;BME280;40151;43.606;1.472;2023-01-29T13:44:20;100417.13;;;12.54;49.52
54236;BME280;40151;43.606;1.472;2023-01-29T13:47:02;100416.25;;;12.55;49.42
54236;BME280;40151;43.606;1.472;2023-01-29T13:51:58;100408.38;;;12.55;49.36
54236;BME280;40151;43.606;1.472;2023-01-29T13:54:36;100415.38;;;12.56;49.61
54236;BME280;40151;43.606;1.472;2023-01-29T13:57:02;100415.38;;;12.56;49.38
54236;BME280;40151;43.606;1.472;2023-01-29T13:59:50;100410.09;;;12.58;49.28
54236;BME280;40151;43.606;1.472;2023-01-29T14:02:23;100411.00;;;12.55;49.51
54236;BME280;40151;43.606;1.472;2023-01-29T14:04:49;100411.88;;;12.57;49.30
54236;BME280;40151;43.606;1.472;2023-01-29T14:07:48;100418.84;;;12.58;49.36
54236;BME280;40151;43.606;1.472;2023-01-29T14:10:19;100423.19;;;12.59;49.39
54236;BME280;40151;43.606;1.472;2023-01-29T14:12:46;100421.47;;;12.58;49.55
54236;BME280;40151;43.606;1.472;2023-01-29T14:15:15;100415.38;;;12.56;49.73
54236;BME280;40151;43.606;1.472;2023-01-29T14:18:14;100416.22;;;12.60;49.43
54236;BME280;40151;43.606;1.472;2023-01-29T14:23:32;100415.34;;;12.59;49.47
54236;BME280;40151;43.606;1.472;2023-01-29T14:26:04;100411.88;;;12.57;49.46
54236;BME280;40151;43.606;1.472;2023-01-29T14:28:32;100410.97;;;12.60;49.29
54236;BME280;40151;43.606;1.472;2023-01-29T14:30:58;100417.06;;;12.60;49.45
54236;BME280;40151;43.606;1.472;2023-01-29T14:36:03;100417.06;;;12.60;49.42
54236;BME280;40151;43.606;1.472;2023-01-29T14:38:30;100418.78;;;12.61;49.60
54236;BME280;40151;43.606;1.472;2023-01-29T14:41:29;100407.47;;;12.61;49.52
54236;BME280;40151;43.606;1.472;2023-01-29T14:46:59;100413.59;;;12.58;49.44
54236;BME280;40151;43.606;1.472;2023-01-29T14:49:47;100421.41;;;12.63;49.41
54236;BME280;40151;43.606;1.472;2023-01-29T14:52:13;100410.09;;;12.59;49.45
54236;BME280;40151;43.606;1.472;2023-01-29T14:54:39;100410.09;;;12.59;49.35
54236;BME280;40151;43.606;1.472;2023-01-29T14:57:10;100421.44;;;12.60;49.48
54236;BME280;40151;43.606;1.472;2023-01-29T14:59:45;100411.81;;;12.64;49.36
54236;BME280;40151;43.606;1.472;2023-01-29T15:02:19;100418.78;;;12.61;49.55
54236;BME280;40151;43.606;1.472;2023-01-29T15:04:53;100424.03;;;12.61;49.61
54236;BME280;40151;43.606;1.472;2023-01-29T15:07:34;100419.66;;;12.64;49.56
54236;BME280;40151;43.606;1.472;2023-01-29T15:10:25;100417.94;;;12.61;49.53
54236;BME280;40151;43.606;1.472;2023-01-29T15:13:02;100424.00;;;12.65;49.60
54236;BME280;40151;43.606;1.472;2023-01-29T15:15:36;100427.53;;;12.64;49.52
54236;BME280;40151;43.606;1.472;2023-01-29T15:18:15;100425.78;;;12.62;49.55
54236;BME280;40151;43.606;1.472;2023-01-29T15:20:43;100418.78;;;12.63;49.48
54236;BME280;40151;43.606;1.472;2023-01-29T15:23:27;100431.88;;;12.61;49.66